Time;durP1;ratioP1;P1;durP2;ratioP2;P2;SDS_P1;SDS_P2;PMS_P1;PMS_P2;Temp;Humidity;BMP_temperature;BMP_pressure;BME280_temperature;BME280_humidity;BME280_pressure;Samples;Min_cycle;Max_cycle;Signal;HPM_P1;HPM_P2
2021/10/10 00:01:46;;;;;;;30.70;14.65;;;;;;;;;;5106993;28;20020;-69
2021/10/10 00:04:12;;;;;;;29.15;14.52;;;;;;;;;;5098406;28;20028;-69
2021/10/10 00:06:38;;;;;;;33.13;14.77;;;;;;;;;;5103707;28;20020;-69
2021/10/10 00:09:04;;;;;;;28.08;14.73;;;;;;;;;;5110371;28;20050;-69
2021/10/10 00:11:30;;;;;;;24.08;14.27;;;;;;;;;;5111790;28;20044;-69
2021/10/10 00:13:56;;;;;;;27.10;14.05;;;;;;;;;;5113663;28;20408;-69
2021/10/10 00:16:23;;;;;;;25.08;14.60;;;;;;;;;;5109010;28;20177;-69
2021/10/10 00:18:49;;;;;;;27.00;14.13;;;;;;;;;;5104333;28;20027;-69
2021/10/10 00:21:15;;;;;;;26.40;13.60;;;;;;;;;;5109191;28;20057;-69
2021/10/10 00:23:41;;;;;;;33.60;14.60;;;;;;;;;;5093762;28;20035;-69
2021/10/10 00:26:07;;;;;;;25.30;12.98;;;;;;;;;;5111502;28;20024;-69
2021/10/10 00:28:33;;;;;;;26.65;13.82;;;;;;;;;;5112339;28;20026;-70
2021/10/10 00:30:59;;;;;;;21.73;12.73;;;;;;;;;;5109531;28;20390;-69
2021/10/10 00:33:26;;;;;;;23.08;12.43;;;;;;;;;;5102276;28;20040;-69
2021/10/10 00:35:52;;;;;;;21.38;12.73;;;;;;;;;;5109734;28;20410;-69
2021/10/10 00:38:18;;;;;;;26.23;13.80;;;;;;;;;;5111889;28;20016;-68
2021/10/10 00:40:44;;;;;;;25.92;14.50;;;;;;;;;;5111113;28;20027;-69
2021/10/10 00:43:10;;;;;;;26.17;14.25;;;;;;;;;;5110912;28;20106;-68
2021/10/10 00:45:36;;;;;;;23.75;13.88;;;;;;;;;;5108809;28;20031;-69
2021/10/10 00:48:03;;;;;;;23.45;13.43;;;;;;;;;;5109543;28;20478;-68
2021/10/10 00:50:29;;;;;;;26.38;14.73;;;;;;;;;;5093476;28;20539;-68
2021/10/10 00:52:56;;;;;;;26.50;15.10;;;;;;;;;;5097891;28;20081;-68
2021/10/10 00:55:22;;;;;;;28.73;15.77;;;;;;;;;;5108797;28;20031;-69
2021/10/10 00:57:50;;;;;;;24.52;15.50;;;;;;;;;;5108832;28;20352;-69
2021/10/10 01:00:16;;;;;;;30.23;15.65;;;;;;;;;;5108957;28;20080;-68
2021/10/10 01:02:43;;;;;;;27.75;14.93;;;;;;;;;;5102172;28;20020;-69
2021/10/10 01:05:09;;;;;;;29.00;15.63;;;;;;;;;;5111278;28;20479;-68
2021/10/10 01:07:35;;;;;;;26.33;15.18;;;;;;;;;;5110040;28;20110;-68
2021/10/10 01:10:02;;;;;;;23.70;13.70;;;;;;;;;;5108887;28;20122;-68
2021/10/10 01:12:28;;;;;;;25.35;13.70;;;;;;;;;;5110259;28;20050;-69
2021/10/10 01:14:54;;;;;;;28.08;13.75;;;;;;;;;;5109107;28;20044;-69
2021/10/10 01:17:22;;;;;;;26.55;13.43;;;;;;;;;;5110105;28;20085;-68
2021/10/10 01:19:49;;;;;;;24.88;13.63;;;;;;;;;;5110785;28;20430;-69
2021/10/10 01:22:15;;;;;;;27.85;13.07;;;;;;;;;;5099673;28;20464;-68
2021/10/10 01:24:41;;;;;;;27.05;14.40;;;;;;;;;;5103100;28;20042;-69
2021/10/10 01:27:07;;;;;;;26.77;15.10;;;;;;;;;;5109076;28;20027;-68
2021/10/10 01:29:33;;;;;;;24.40;13.82;;;;;;;;;;5107982;28;20086;-68
2021/10/10 01:31:59;;;;;;;24.10;14.05;;;;;;;;;;5104567;28;20043;-68
2021/10/10 01:34:25;;;;;;;26.67;14.60;;;;;;;;;;5102467;28;20053;-68
2021/10/10 01:36:52;;;;;;;26.05;14.73;;;;;;;;;;5108650;28;20075;-69
2021/10/10 01:39:18;;;;;;;26.08;14.55;;;;;;;;;;5107883;28;20065;-69
2021/10/10 01:41:44;;;;;;;26.45;14.95;;;;;;;;;;5110203;28;20474;-69
2021/10/10 01:44:14;;;;;;;28.42;14.63;;;;;;;;;;5110582;28;20102;-69
2021/10/10 01:46:40;;;;;;;25.80;14.07;;;;;;;;;;5110079;28;20032;-69
2021/10/10 01:49:06;;;;;;;24.73;13.60;;;;;;;;;;5108343;28;20051;-69
2021/10/10 01:51:32;;;;;;;28.70;14.30;;;;;;;;;;5105463;28;20071;-69
2021/10/10 01:53:59;;;;;;;26.80;14.13;;;;;;;;;;5095609;28;20030;-68
2021/10/10 01:56:25;;;;;;;26.73;14.32;;;;;;;;;;5109295;28;20124;-68
2021/10/10 01:58:51;;;;;;;28.17;14.20;;;;;;;;;;5110711;28;20052;-69
2021/10/10 02:01:17;;;;;;;28.63;14.27;;;;;;;;;;5107246;28;20445;-69
2021/10/10 02:03:43;;;;;;;29.30;14.55;;;;;;;;;;5104251;28;20086;-69
2021/10/10 02:06:09;;;;;;;28.60;15.10;;;;;;;;;;5112925;28;20028;-69
2021/10/10 02:08:35;;;;;;;27.90;14.70;;;;;;;;;;5108623;28;20024;-69
2021/10/10 02:11:01;;;;;;;25.33;14.52;;;;;;;;;;5116327;28;20422;-69
2021/10/10 02:13:27;;;;;;;30.58;14.95;;;;;;;;;;5113801;28;20072;-69
2021/10/10 02:15:53;;;;;;;26.92;13.50;;;;;;;;;;5112261;28;20035;-69
2021/10/10 02:18:19;;;;;;;22.45;13.35;;;;;;;;;;5111915;28;20583;-69
2021/10/10 02:20:45;;;;;;;27.60;14.18;;;;;;;;;;5112115;28;20056;-69
2021/10/10 02:23:11;;;;;;;28.30;14.23;;;;;;;;;;5098991;28;20058;-69
2021/10/10 02:25:37;;;;;;;23.10;13.48;;;;;;;;;;5113365;28;20356;-69
2021/10/10 02:28:03;;;;;;;26.42;13.57;;;;;;;;;;5112181;28;20036;-69
2021/10/10 02:30:29;;;;;;;25.55;13.13;;;;;;;;;;5112613;28;20067;-69
2021/10/10 02:32:55;;;;;;;25.52;14.15;;;;;;;;;;5104448;28;20047;-68
2021/10/10 02:35:21;;;;;;;26.38;14.63;;;;;;;;;;5113459;28;20031;-69
2021/10/10 02:37:47;;;;;;;24.73;13.63;;;;;;;;;;5114563;28;20032;-69
2021/10/10 02:40:13;;;;;;;30.63;14.57;;;;;;;;;;5112212;28;20033;-68
2021/10/10 02:42:39;;;;;;;26.27;14.77;;;;;;;;;;5113241;28;20110;-68
2021/10/10 02:45:06;;;;;;;26.85;14.27;;;;;;;;;;5111888;28;20023;-69
2021/10/10 02:47:32;;;;;;;35.40;16.75;;;;;;;;;;5111782;28;20425;-69
2021/10/10 02:49:58;;;;;;;34.80;16.00;;;;;;;;;;5115167;28;20092;-69
2021/10/10 02:52:24;;;;;;;30.05;16.10;;;;;;;;;;5100305;28;20035;-69
2021/10/10 02:54:51;;;;;;;30.35;15.68;;;;;;;;;;5106507;28;20027;-69
2021/10/10 02:57:17;;;;;;;28.80;15.30;;;;;;;;;;5111655;28;20129;-69
2021/10/10 02:59:43;;;;;;;30.90;15.55;;;;;;;;;;5111857;28;20507;-69
2021/10/10 03:02:09;;;;;;;31.88;16.13;;;;;;;;;;5106591;28;20097;-69
2021/10/10 03:04:35;;;;;;;29.25;16.17;;;;;;;;;;5112110;28;20027;-69
2021/10/10 03:07:01;;;;;;;29.70;16.20;;;;;;;;;;5111944;28;20073;-69
2021/10/10 03:09:27;;;;;;;25.67;14.45;;;;;;;;;;5111281;28;20020;-70
2021/10/10 03:11:53;;;;;;;22.75;12.30;;;;;;;;;;5113090;28;20506;-70
2021/10/10 03:14:19;;;;;;;25.58;14.02;;;;;;;;;;5111860;28;20026;-69
2021/10/10 03:16:45;;;;;;;24.30;13.32;;;;;;;;;;5113101;28;20524;-69
2021/10/10 03:19:11;;;;;;;28.63;14.43;;;;;;;;;;5111110;28;20020;-71
2021/10/10 03:21:38;;;;;;;31.02;14.13;;;;;;;;;;5105427;28;20222;-70
2021/10/10 03:24:04;;;;;;;26.67;14.15;;;;;;;;;;5099546;28;20012;-70
2021/10/10 03:26:30;;;;;;;26.88;12.52;;;;;;;;;;5111256;28;20034;-70
2021/10/10 03:28:56;;;;;;;26.63;13.43;;;;;;;;;;5114682;28;20038;-70
2021/10/10 03:31:22;;;;;;;25.17;13.18;;;;;;;;;;5109484;28;20035;-70
2021/10/10 03:33:48;;;;;;;23.73;12.63;;;;;;;;;;5104960;28;20535;-70
2021/10/10 03:36:14;;;;;;;20.60;12.18;;;;;;;;;;5110635;28;20024;-70
2021/10/10 03:38:40;;;;;;;20.38;11.88;;;;;;;;;;5110727;28;20028;-70
2021/10/10 03:41:06;;;;;;;22.38;11.57;;;;;;;;;;5113588;28;20081;-69
2021/10/10 03:43:33;;;;;;;20.75;12.77;;;;;;;;;;5113622;28;20065;-70
2021/10/10 03:45:59;;;;;;;23.30;11.85;;;;;;;;;;5111042;28;20055;-69
2021/10/10 03:48:25;;;;;;;21.40;11.20;;;;;;;;;;5109614;28;20561;-69
2021/10/10 03:50:51;;;;;;;22.58;11.77;;;;;;;;;;5110653;28;20050;-69
2021/10/10 03:53:17;;;;;;;21.52;10.85;;;;;;;;;;5097080;28;20024;-69
2021/10/10 03:55:43;;;;;;;20.30;11.77;;;;;;;;;;5112308;28;20529;-69
2021/10/10 03:58:13;;;;;;;19.10;11.00;;;;;;;;;;5110325;28;20442;-69
2021/10/10 04:00:40;;;;;;;19.58;9.57;;;;;;;;;;5109745;28;20375;-69
2021/10/10 04:03:07;;;;;;;20.45;10.98;;;;;;;;;;5103451;28;20027;-69
2021/10/10 04:08:00;;;;;;;16.23;10.35;;;;;;;;;;5113815;28;20030;-69
2021/10/10 04:10:26;;;;;;;18.17;10.35;;;;;;;;;;5109623;28;20395;-69
2021/10/10 04:12:52;;;;;;;21.70;10.25;;;;;;;;;;5111665;28;20027;-69
2021/10/10 04:15:18;;;;;;;21.48;10.10;;;;;;;;;;5109587;28;20023;-69
2021/10/10 04:17:44;;;;;;;19.60;10.85;;;;;;;;;;5110070;28;20046;-69
2021/10/10 04:20:11;;;;;;;20.08;11.38;;;;;;;;;;5110922;28;20072;-69
2021/10/10 04:22:38;;;;;;;24.15;10.60;;;;;;;;;;5097539;28;20078;-69
2021/10/10 04:25:04;;;;;;;19.98;10.55;;;;;;;;;;5106900;28;20034;-69
2021/10/10 04:27:33;;;;;;;16.98;10.63;;;;;;;;;;5109530;28;20437;-69
2021/10/10 04:29:59;;;;;;;17.75;10.65;;;;;;;;;;5109878;28;20020;-69
2021/10/10 04:32:25;;;;;;;22.30;9.18;;;;;;;;;;5103067;28;20078;-69
2021/10/10 04:34:51;;;;;;;22.23;10.32;;;;;;;;;;5112141;28;20024;-69
2021/10/10 04:37:17;;;;;;;18.13;10.32;;;;;;;;;;5109494;28;20035;-69
2021/10/10 04:39:43;;;;;;;24.80;11.10;;;;;;;;;;5109932;28;20028;-69
2021/10/10 04:42:09;;;;;;;19.33;11.15;;;;;;;;;;5110975;28;20030;-69
2021/10/10 04:44:36;;;;;;;21.65;11.60;;;;;;;;;;5109193;28;20024;-69
2021/10/10 04:47:02;;;;;;;21.75;11.15;;;;;;;;;;5112820;28;20024;-69
2021/10/10 04:49:28;;;;;;;17.48;11.13;;;;;;;;;;5110378;28;20652;-69
2021/10/10 04:51:54;;;;;;;19.85;11.18;;;;;;;;;;5102625;28;20103;-69
2021/10/10 04:54:20;;;;;;;24.30;11.73;;;;;;;;;;5099870;28;20359;-70
2021/10/10 04:56:46;;;;;;;20.60;11.43;;;;;;;;;;5109283;28;20053;-69
2021/10/10 04:59:12;;;;;;;21.88;12.35;;;;;;;;;;5110583;28;20463;-69
2021/10/10 05:01:38;;;;;;;27.15;11.95;;;;;;;;;;5105463;28;20024;-69
2021/10/10 05:04:04;;;;;;;21.83;11.95;;;;;;;;;;5105424;28;20036;-70
2021/10/10 05:06:30;;;;;;;20.13;11.75;;;;;;;;;;5108523;28;20490;-74
2021/10/10 05:08:56;;;;;;;25.63;12.27;;;;;;;;;;5108582;28;20031;-69
2021/10/10 05:11:22;;;;;;;21.65;12.23;;;;;;;;;;5110379;28;20047;-70
2021/10/10 05:13:48;;;;;;;21.08;11.05;;;;;;;;;;5112044;28;20090;-69
2021/10/10 05:16:14;;;;;;;20.63;11.38;;;;;;;;;;5108843;28;20473;-69
2021/10/10 05:18:40;;;;;;;22.17;11.65;;;;;;;;;;5108007;28;20031;-68
2021/10/10 05:21:06;;;;;;;22.50;11.55;;;;;;;;;;5108070;28;20047;-69
2021/10/10 05:23:32;;;;;;;20.73;12.27;;;;;;;;;;5092689;28;20028;-70
2021/10/10 05:26:01;;;;;;;21.90;12.60;;;;;;;;;;5112086;28;20030;-70
2021/10/10 05:28:27;;;;;;;20.23;11.73;;;;;;;;;;5108800;28;20027;-70
2021/10/10 05:30:53;;;;;;;18.45;11.55;;;;;;;;;;5108138;28;20044;-70
2021/10/10 05:33:20;;;;;;;19.27;11.60;;;;;;;;;;5107167;28;20078;-71
2021/10/10 05:35:46;;;;;;;20.90;11.13;;;;;;;;;;5110597;28;20055;-71
2021/10/10 05:38:12;;;;;;;24.73;11.88;;;;;;;;;;5109647;28;20580;-70
2021/10/10 05:40:38;;;;;;;19.50;10.35;;;;;;;;;;5109316;28;20469;-69
2021/10/10 05:43:04;;;;;;;17.90;11.23;;;;;;;;;;5109830;28;20106;-70
2021/10/10 05:45:30;;;;;;;20.30;11.43;;;;;;;;;;5107620;28;20027;-70
2021/10/10 05:47:56;;;;;;;18.95;10.57;;;;;;;;;;5108467;28;20016;-72
2021/10/10 05:50:22;;;;;;;20.13;10.93;;;;;;;;;;5108004;28;20047;-73
2021/10/10 05:52:50;;;;;;;22.40;11.50;;;;;;;;;;5104591;28;20028;-70
2021/10/10 05:55:16;;;;;;;21.27;12.02;;;;;;;;;;5104281;28;20047;-71
2021/10/10 05:57:46;;;;;;;26.30;11.23;;;;;;;;;;5105153;28;20064;-72
2021/10/10 06:00:13;;;;;;;21.23;11.13;;;;;;;;;;5103491;28;20027;-71
2021/10/10 06:02:40;;;;;;;20.30;10.20;;;;;;;;;;5100383;28;20028;-70
2021/10/10 06:05:06;;;;;;;17.77;10.82;;;;;;;;;;5110516;28;20049;-72
2021/10/10 06:07:32;;;;;;;17.55;10.50;;;;;;;;;;5109124;28;20680;-72
2021/10/10 06:09:58;;;;;;;17.90;10.75;;;;;;;;;;5108494;28;20052;-71
2021/10/10 06:12:24;;;;;;;17.65;9.63;;;;;;;;;;5108979;28;20058;-69
2021/10/10 06:14:51;;;;;;;19.00;9.77;;;;;;;;;;5108130;28;20035;-69
2021/10/10 06:17:20;;;;;;;20.05;10.15;;;;;;;;;;5110238;28;20101;-71
2021/10/10 06:19:46;;;;;;;18.52;9.63;;;;;;;;;;5111714;28;20015;-70
2021/10/10 06:22:12;;;;;;;15.27;8.30;;;;;;;;;;5096645;28;20070;-70
2021/10/10 06:24:38;;;;;;;12.57;7.80;;;;;;;;;;5096289;28;20055;-70
2021/10/10 06:27:04;;;;;;;11.68;7.13;;;;;;;;;;5096020;28;20053;-75
2021/10/10 06:29:31;;;;;;;13.38;6.78;;;;;;;;;;5090501;28;20086;-75
2021/10/10 06:31:57;;;;;;;15.05;8.95;;;;;;;;;;5099352;28;20082;-75
2021/10/10 06:34:24;;;;;;;14.80;7.78;;;;;;;;;;5106472;28;20059;-76
2021/10/10 06:36:49;;;;;;;13.95;8.40;;;;;;;;;;5105913;28;20493;-75
2021/10/10 06:39:18;;;;;;;15.45;8.38;;;;;;;;;;5106183;28;20095;-75
2021/10/10 06:41:50;;;;;;;14.32;8.23;;;;;;;;;;5108956;28;20441;-75
2021/10/10 06:44:16;;;;;;;13.88;8.02;;;;;;;;;;5110218;28;20020;-75
2021/10/10 06:46:42;;;;;;;12.68;7.68;;;;;;;;;;5109472;28;20356;-75
2021/10/10 06:49:08;;;;;;;12.43;7.75;;;;;;;;;;5108981;28;20031;-75
2021/10/10 06:51:34;;;;;;;12.75;7.55;;;;;;;;;;5105288;28;20068;-75
2021/10/10 06:54:00;;;;;;;12.70;7.00;;;;;;;;;;5103889;28;20049;-76
2021/10/10 06:56:26;;;;;;;10.50;6.60;;;;;;;;;;5111096;28;20020;-75
2021/10/10 06:58:52;;;;;;;13.30;7.53;;;;;;;;;;5113344;28;20019;-76
2021/10/10 07:01:18;;;;;;;9.93;5.80;;;;;;;;;;5107405;28;20425;-75
2021/10/10 07:03:44;;;;;;;9.63;5.55;;;;;;;;;;5103865;28;20031;-76
2021/10/10 07:06:10;;;;;;;8.85;4.57;;;;;;;;;;5108268;28;20114;-76
2021/10/10 07:08:36;;;;;;;6.65;3.60;;;;;;;;;;5103266;28;20046;-77
2021/10/10 07:11:02;;;;;;;7.22;3.45;;;;;;;;;;5103334;28;20043;-75
2021/10/10 07:13:28;;;;;;;7.93;3.55;;;;;;;;;;5110570;28;20016;-77
2021/10/10 07:15:55;;;;;;;5.80;3.53;;;;;;;;;;5094203;28;20490;-77
2021/10/10 07:18:24;;;;;;;8.73;4.38;;;;;;;;;;5109335;28;20049;-72
2021/10/10 07:21:01;;;;;;;7.82;4.38;;;;;;;;;;5109426;28;20073;-71
2021/10/10 07:25:54;;;;;;;6.90;3.47;;;;;;;;;;5112755;28;20028;-67
2021/10/10 07:28:20;;;;;;;9.25;4.30;;;;;;;;;;5110802;28;20023;-68
2021/10/10 07:30:48;;;;;;;5.68;3.50;;;;;;;;;;5110247;28;20140;-68
2021/10/10 07:33:14;;;;;;;8.55;3.85;;;;;;;;;;5101055;28;20032;-68
2021/10/10 07:35:40;;;;;;;8.98;4.00;;;;;;;;;;5110804;28;20028;-68
2021/10/10 07:38:06;;;;;;;10.43;3.92;;;;;;;;;;5113357;28;20043;-68
2021/10/10 07:40:32;;;;;;;7.13;3.92;;;;;;;;;;5111551;28;20032;-68
2021/10/10 07:42:58;;;;;;;9.40;3.83;;;;;;;;;;5110272;28;20038;-69
2021/10/10 07:45:25;;;;;;;10.48;4.60;;;;;;;;;;5110511;28;20027;-69
2021/10/10 07:47:51;;;;;;;9.20;4.63;;;;;;;;;;5110776;27;20039;-68
2021/10/10 07:50:21;;;;;;;7.57;3.65;;;;;;;;;;5095870;28;20070;-69
2021/10/10 07:52:47;;;;;;;9.82;4.95;;;;;;;;;;5105095;28;20032;-67
2021/10/10 07:55:14;;;;;;;10.27;4.72;;;;;;;;;;5096390;28;20032;-67
2021/10/10 07:57:40;;;;;;;10.73;5.30;;;;;;;;;;5103324;28;20386;-67
2021/10/10 08:00:07;;;;;;;9.23;4.65;;;;;;;;;;5110968;28;20013;-67
2021/10/10 08:02:47;;;;;;;8.55;4.22;;;;;;;;;;5100997;28;20081;-67
2021/10/10 08:05:13;;;;;;;7.25;4.20;;;;;;;;;;5109496;28;20378;-67
2021/10/10 08:07:39;;;;;;;9.60;5.10;;;;;;;;;;5109025;28;20027;-67
2021/10/10 08:10:05;;;;;;;9.32;5.05;;;;;;;;;;5108273;28;20526;-67
2021/10/10 08:12:31;;;;;;;10.48;5.00;;;;;;;;;;5109964;28;20465;-67
2021/10/10 08:14:57;;;;;;;9.82;5.50;;;;;;;;;;5103990;28;20690;-67
2021/10/10 08:17:23;;;;;;;13.13;5.80;;;;;;;;;;5105097;28;20027;-67
2021/10/10 08:19:49;;;;;;;8.80;5.28;;;;;;;;;;5110099;28;20435;-67
2021/10/10 08:22:17;;;;;;;10.13;5.30;;;;;;;;;;5098764;28;20024;-67
2021/10/10 08:24:43;;;;;;;13.02;5.40;;;;;;;;;;5101525;28;20023;-67
2021/10/10 08:27:09;;;;;;;10.60;5.35;;;;;;;;;;5098821;28;20421;-68
2021/10/10 08:29:34;;;;;;;9.40;5.38;;;;;;;;;;5109851;28;20027;-67
2021/10/10 08:32:00;;;;;;;12.82;5.97;;;;;;;;;;5113257;28;20031;-70
2021/10/10 08:34:26;;;;;;;13.70;5.93;;;;;;;;;;5100495;28;20442;-69
2021/10/10 08:36:52;;;;;;;12.68;6.20;;;;;;;;;;5104618;28;20119;-68
2021/10/10 08:39:24;;;;;;;9.20;5.82;;;;;;;;;;5109397;28;20026;-69
2021/10/10 08:41:57;;;;;;;13.27;6.10;;;;;;;;;;5109745;28;20031;-69
2021/10/10 08:44:31;;;;;;;14.82;6.53;;;;;;;;;;5095849;28;20028;-68
2021/10/10 08:47:01;;;;;;;13.55;6.60;;;;;;;;;;5112144;28;20096;-66
2021/10/10 08:49:27;;;;;;;17.63;7.60;;;;;;;;;;5108205;28;20085;-68
2021/10/10 08:51:53;;;;;;;15.45;7.05;;;;;;;;;;5106493;28;20036;-66
2021/10/10 08:54:19;;;;;;;15.63;6.85;;;;;;;;;;5106971;28;20099;-66
2021/10/10 08:56:45;;;;;;;13.45;6.25;;;;;;;;;;5107934;28;20020;-66
2021/10/10 08:59:12;;;;;;;14.05;7.32;;;;;;;;;;5110654;28;20028;-66
2021/10/10 09:01:38;;;;;;;18.13;8.05;;;;;;;;;;5109808;28;20436;-66
2021/10/10 09:04:05;;;;;;;16.75;7.90;;;;;;;;;;5109139;28;20020;-66
2021/10/10 09:06:33;;;;;;;20.63;7.95;;;;;;;;;;5108881;28;20031;-66
2021/10/10 09:09:25;;;;;;;20.85;8.55;;;;;;;;;;5103630;28;20048;-66
2021/10/10 09:11:51;;;;;;;19.20;7.85;;;;;;;;;;5094877;28;20058;-66
2021/10/10 09:14:17;;;;;;;21.63;7.68;;;;;;;;;;5110786;28;20103;-66
2021/10/10 09:16:43;;;;;;;17.48;8.13;;;;;;;;;;5110605;28;20034;-66
2021/10/10 09:19:29;;;;;;;16.48;7.95;;;;;;;;;;5108892;28;20046;-66
2021/10/10 09:21:59;;;;;;;16.15;7.90;;;;;;;;;;5103027;28;20027;-66
2021/10/10 09:24:26;;;;;;;19.67;8.70;;;;;;;;;;5108971;28;20043;-66
2021/10/10 09:26:52;;;;;;;17.95;8.35;;;;;;;;;;5109039;28;20028;-66
2021/10/10 09:29:35;;;;;;;16.25;8.18;;;;;;;;;;5111267;28;20461;-66
2021/10/10 09:32:12;;;;;;;15.95;8.15;;;;;;;;;;5108425;28;20031;-66
2021/10/10 09:34:39;;;;;;;21.67;8.38;;;;;;;;;;5111324;28;20024;-67
2021/10/10 09:37:13;;;;;;;17.30;8.50;;;;;;;;;;5108075;28;20027;-67
2021/10/10 09:39:46;;;;;;;23.75;8.82;;;;;;;;;;5108774;28;20114;-66
2021/10/10 09:42:30;;;;;;;23.85;9.18;;;;;;;;;;5108196;28;20422;-66
2021/10/10 09:44:56;;;;;;;18.02;9.23;;;;;;;;;;5107651;28;20384;-66
2021/10/10 09:47:22;;;;;;;19.17;9.80;;;;;;;;;;5109947;28;20092;-66
2021/10/10 09:49:48;;;;;;;27.85;9.77;;;;;;;;;;5110862;28;20028;-66
2021/10/10 09:52:16;;;;;;;25.92;10.52;;;;;;;;;;5108173;28;20402;-67
2021/10/10 09:54:52;;;;;;;21.83;9.52;;;;;;;;;;5108682;28;20019;-66
2021/10/10 09:57:19;;;;;;;25.00;10.68;;;;;;;;;;5108165;28;20247;-66
2021/10/10 09:59:45;;;;;;;21.08;9.82;;;;;;;;;;5108571;28;20062;-65
2021/10/10 10:02:11;;;;;;;18.20;9.38;;;;;;;;;;5110715;28;20573;-67
2021/10/10 10:04:44;;;;;;;26.90;11.00;;;;;;;;;;5109649;28;20020;-66
2021/10/10 10:07:15;;;;;;;24.58;10.68;;;;;;;;;;5108610;28;20032;-66
2021/10/10 10:09:41;;;;;;;30.35;12.18;;;;;;;;;;5108679;28;20023;-67
2021/10/10 10:12:07;;;;;;;22.45;10.20;;;;;;;;;;5107847;28;20128;-67
2021/10/10 10:14:34;;;;;;;20.55;9.75;;;;;;;;;;5107932;28;20034;-65
2021/10/10 10:17:02;;;;;;;22.35;9.50;;;;;;;;;;5112076;28;20028;-66
2021/10/10 10:19:29;;;;;;;23.15;10.52;;;;;;;;;;5110142;28;20387;-66
2021/10/10 10:21:56;;;;;;;27.95;10.40;;;;;;;;;;5108351;28;20032;-66
2021/10/10 10:24:23;;;;;;;23.55;10.65;;;;;;;;;;5109897;28;20046;-65
2021/10/10 10:26:49;;;;;;;25.30;11.93;;;;;;;;;;5112075;28;20031;-67
2021/10/10 10:29:18;;;;;;;24.95;10.68;;;;;;;;;;5113226;28;20031;-67
2021/10/10 10:31:45;;;;;;;26.40;9.40;;;;;;;;;;5113830;28;20031;-67
2021/10/10 10:34:18;;;;;;;20.52;9.52;;;;;;;;;;5112338;28;20051;-66
2021/10/10 10:37:03;;;;;;;19.50;9.35;;;;;;;;;;5111839;28;20028;-66
2021/10/10 10:39:43;;;;;;;24.90;10.43;;;;;;;;;;5103339;28;20046;-64
2021/10/10 10:42:13;;;;;;;32.70;13.50;;;;;;;;;;5111938;28;20331;-65
2021/10/10 10:44:48;;;;;;;26.17;9.70;;;;;;;;;;5111683;28;20024;-67
2021/10/10 10:47:25;;;;;;;24.88;10.25;;;;;;;;;;5113262;28;20487;-65
2021/10/10 10:49:51;;;;;;;22.13;10.25;;;;;;;;;;5114318;28;20051;-66
2021/10/10 10:52:29;;;;;;;21.10;10.35;;;;;;;;;;5111701;28;20093;-65
2021/10/10 10:55:18;;;;;;;27.85;10.50;;;;;;;;;;5111270;28;20032;-65
2021/10/10 10:57:57;;;;;;;24.52;10.73;;;;;;;;;;5111317;28;20356;-65
2021/10/10 11:00:24;;;;;;;23.98;10.77;;;;;;;;;;5105767;28;20410;-65
2021/10/10 11:02:50;;;;;;;22.58;11.15;;;;;;;;;;5114175;28;20023;-65
2021/10/10 11:05:33;;;;;;;20.60;10.25;;;;;;;;;;5113877;28;20084;-65
2021/10/10 11:08:00;;;;;;;31.40;14.15;;;;;;;;;;5110483;28;20019;-65
2021/10/10 11:10:26;;;;;;;25.98;11.02;;;;;;;;;;5111723;28;20387;-65
2021/10/10 11:12:55;;;;;;;25.25;11.30;;;;;;;;;;5111590;28;20059;-65
2021/10/10 11:15:21;;;;;;;26.33;11.25;;;;;;;;;;5111348;28;20024;-65
2021/10/10 11:17:55;;;;;;;23.70;10.35;;;;;;;;;;5110810;28;20111;-66
2021/10/10 11:20:21;;;;;;;31.38;11.43;;;;;;;;;;5113246;28;20124;-65
2021/10/10 11:22:47;;;;;;;26.00;11.80;;;;;;;;;;5113214;28;20115;-65
2021/10/10 11:25:13;;;;;;;20.23;10.10;;;;;;;;;;5111161;28;20051;-65
2021/10/10 11:27:40;;;;;;;24.17;11.13;;;;;;;;;;5111191;28;20058;-65
2021/10/10 11:30:07;;;;;;;28.10;10.88;;;;;;;;;;5110585;28;20494;-65
2021/10/10 11:32:33;;;;;;;27.90;11.52;;;;;;;;;;5104012;28;20044;-65
2021/10/10 11:34:59;;;;;;;21.23;10.95;;;;;;;;;;5110121;28;20028;-65
2021/10/10 11:37:25;;;;;;;23.58;10.70;;;;;;;;;;5110371;28;20030;-65
2021/10/10 11:39:51;;;;;;;25.52;10.50;;;;;;;;;;5110273;28;20475;-65
2021/10/10 11:42:17;;;;;;;33.63;11.68;;;;;;;;;;5110942;28;20156;-65
2021/10/10 11:44:48;;;;;;;27.85;11.85;;;;;;;;;;5110954;28;20391;-65
2021/10/10 11:47:24;;;;;;;23.17;10.77;;;;;;;;;;5113371;28;20027;-65
2021/10/10 11:49:57;;;;;;;25.88;10.68;;;;;;;;;;5114412;28;20023;-65
2021/10/10 11:52:30;;;;;;;25.17;10.27;;;;;;;;;;5110290;28;20465;-66
2021/10/10 11:55:03;;;;;;;25.38;10.18;;;;;;;;;;5109926;28;20023;-65
2021/10/10 11:57:30;;;;;;;23.00;10.15;;;;;;;;;;5110405;28;20024;-66
2021/10/10 12:00:17;;;;;;;30.33;11.20;;;;;;;;;;5110807;28;20391;-65
2021/10/10 12:02:46;;;;;;;25.38;11.82;;;;;;;;;;5095736;28;20016;-66
2021/10/10 12:05:13;;;;;;;21.20;10.65;;;;;;;;;;5096353;28;20552;-65
2021/10/10 12:07:41;;;;;;;24.08;10.50;;;;;;;;;;5111455;28;20016;-65
2021/10/10 12:10:07;;;;;;;;;;;;;;;;;;5110310;28;20042;-65
2021/10/10 12:12:34;;;;;;;20.73;9.85;;;;;;;;;;5110526;28;19911;-65
2021/10/10 12:15:00;;;;;;;33.28;10.30;;;;;;;;;;5110104;28;20030;-65
2021/10/10 12:17:29;;;;;;;24.48;10.07;;;;;;;;;;5111297;28;20051;-65
2021/10/10 12:19:55;;;;;;;22.52;10.27;;;;;;;;;;5113043;28;20063;-65
2021/10/10 12:22:21;;;;;;;23.95;11.07;;;;;;;;;;5110149;28;20035;-65
2021/10/10 12:24:48;;;;;;;25.95;10.48;;;;;;;;;;5109825;28;20027;-65
2021/10/10 12:27:24;;;;;;;22.92;10.20;;;;;;;;;;5110137;28;20101;-65
2021/10/10 12:29:50;;;;;;;21.80;11.02;;;;;;;;;;5109910;28;20422;-65
2021/10/10 12:32:20;;;;;;;26.95;10.82;;;;;;;;;;5105755;28;20494;-65
2021/10/10 12:34:46;;;;;;;23.35;10.77;;;;;;;;;;5113015;28;20055;-65
2021/10/10 12:37:31;;;;;;;22.70;10.70;;;;;;;;;;5111049;28;20077;-67
2021/10/10 12:39:57;;;;;;;24.13;10.63;;;;;;;;;;5109907;28;20387;-67
2021/10/10 12:42:23;;;;;;;21.70;10.70;;;;;;;;;;5109208;28;20024;-67
2021/10/10 12:45:04;;;;;;;29.42;11.40;;;;;;;;;;5109871;28;20036;-67
2021/10/10 12:47:30;;;;;;;24.73;10.55;;;;;;;;;;5109522;28;20040;-67
2021/10/10 12:49:56;;;;;;;25.60;10.93;;;;;;;;;;5112409;28;20055;-65
2021/10/10 12:52:35;;;;;;;27.98;11.80;;;;;;;;;;5109266;28;20043;-67
2021/10/10 12:55:01;;;;;;;39.50;12.10;;;;;;;;;;5109573;28;20045;-67
2021/10/10 12:57:28;;;;;;;26.13;11.18;;;;;;;;;;5109151;28;20022;-66
2021/10/10 12:59:55;;;;;;;23.13;10.77;;;;;;;;;;5109615;28;20024;-67
2021/10/10 13:02:21;;;;;;;21.42;10.38;;;;;;;;;;5110746;28;20016;-65
2021/10/10 13:04:47;;;;;;;22.02;10.55;;;;;;;;;;5110512;28;20058;-65
2021/10/10 13:07:14;;;;;;;22.50;11.38;;;;;;;;;;5103414;28;20027;-65
2021/10/10 13:09:40;;;;;;;28.48;11.25;;;;;;;;;;5109212;28;20034;-65
2021/10/10 13:12:06;;;;;;;23.95;11.48;;;;;;;;;;5108403;28;20410;-65
2021/10/10 13:14:33;;;;;;;23.27;10.13;;;;;;;;;;5109361;28;20023;-66
2021/10/10 13:16:59;;;;;;;27.85;11.25;;;;;;;;;;5112325;28;20497;-65
2021/10/10 13:19:25;;;;;;;26.58;12.10;;;;;;;;;;5102916;28;20031;-65
2021/10/10 13:21:52;;;;;;;24.58;11.23;;;;;;;;;;5109053;28;20040;-65
2021/10/10 13:24:19;;;;;;;26.52;11.23;;;;;;;;;;5108864;28;20022;-67
2021/10/10 13:26:45;;;;;;;26.38;10.57;;;;;;;;;;5108826;28;20027;-66
2021/10/10 13:29:14;;;;;;;26.23;11.43;;;;;;;;;;5111311;28;20020;-67
2021/10/10 13:31:40;;;;;;;24.52;11.80;;;;;;;;;;5109523;28;20040;-67
2021/10/10 13:34:06;;;;;;;20.77;11.13;;;;;;;;;;5108318;28;20044;-65
2021/10/10 13:36:32;;;;;;;22.55;11.23;;;;;;;;;;5108680;28;20030;-65
2021/10/10 13:38:58;;;;;;;23.38;10.48;;;;;;;;;;5108603;28;20433;-67
2021/10/10 13:41:25;;;;;;;31.67;14.65;;;;;;;;;;5110156;28;20107;-65
2021/10/10 13:43:51;;;;;;;28.02;11.85;;;;;;;;;;5111110;28;20030;-67
2021/10/10 13:46:17;;;;;;;20.98;11.77;;;;;;;;;;5108212;28;20062;-66
2021/10/10 13:48:44;;;;;;;23.88;11.38;;;;;;;;;;5108138;28;20027;-66
2021/10/10 13:51:10;;;;;;;28.45;11.52;;;;;;;;;;5108217;28;20035;-67
2021/10/10 13:53:37;;;;;;;23.00;11.45;;;;;;;;;;5108084;28;20566;-65
2021/10/10 13:56:04;;;;;;;27.23;11.10;;;;;;;;;;5112033;28;20027;-65
2021/10/10 13:58:29;;;;;;;25.02;12.10;;;;;;;;;;5111029;28;20514;-65
2021/10/10 14:00:56;;;;;;;21.40;10.43;;;;;;;;;;5114895;28;20031;-65
2021/10/10 14:03:22;;;;;;;25.70;11.60;;;;;;;;;;5115227;28;20023;-65
2021/10/10 14:05:50;;;;;;;34.58;15.95;;;;;;;;;;5114866;28;20063;-65
2021/10/10 14:08:17;;;;;;;27.95;12.13;;;;;;;;;;5117460;28;20456;-65
2021/10/10 14:10:44;;;;;;;29.88;10.70;;;;;;;;;;5116737;28;20123;-65
2021/10/10 14:13:17;;;;;;;28.13;11.52;;;;;;;;;;5115338;28;20462;-66
2021/10/10 14:15:44;;;;;;;25.00;11.10;;;;;;;;;;5115421;27;20519;-65
2021/10/10 14:18:10;;;;;;;30.63;14.82;;;;;;;;;;5114665;28;20019;-65
2021/10/10 14:20:36;;;;;;;31.05;14.43;;;;;;;;;;5114837;27;20348;-65
2021/10/10 14:23:02;;;;;;;28.20;13.85;;;;;;;;;;5118644;28;20023;-65
2021/10/10 14:25:28;;;;;;;30.75;13.68;;;;;;;;;;5116778;28;20111;-65
2021/10/10 14:27:54;;;;;;;28.13;12.07;;;;;;;;;;5115225;28;20388;-65